sensor_id;sensor_type;location;lat;lon;timestamp;temperature;humidity
19218;DHT22;9743;52.550;13.264;2022-08-19T00:00:58;20.50;99.90
19218;DHT22;9743;52.550;13.264;2022-08-19T00:03:29;20.50;99.90
19218;DHT22;9743;52.550;13.264;2022-08-19T00:06:00;20.40;99.90
19218;DHT22;9743;52.550;13.264;2022-08-19T00:08:40;20.40;99.90
19218;DHT22;9743;52.550;13.264;2022-08-19T00:11:09;20.40;99.90
19218;DHT22;9743;52.550;13.264;2022-08-19T00:13:38;20.40;99.90
19218;DHT22;9743;52.550;13.264;2022-08-19T00:16:10;20.30;99.90
19218;DHT22;9743;52.550;13.264;2022-08-19T00:18:50;20.60;99.90
19218;DHT22;9743;52.550;13.264;2022-08-19T00:21:27;20.70;99.90
19218;DHT22;9743;52.550;13.264;2022-08-19T00:23:57;20.70;99.90
19218;DHT22;9743;52.550;13.264;2022-08-19T00:26:24;20.70;99.90
19218;DHT22;9743;52.550;13.264;2022-08-19T00:28:51;20.60;99.90
19218;DHT22;9743;52.550;13.264;2022-08-19T00:31:20;20.50;99.90
19218;DHT22;9743;52.550;13.264;2022-08-19T00:33:47;20.60;99.90
19218;DHT22;9743;52.550;13.264;2022-08-19T00:36:16;20.70;99.90
19218;DHT22;9743;52.550;13.264;2022-08-19T00:38:43;20.70;99.90
19218;DHT22;9743;52.550;13.264;2022-08-19T00:41:13;20.70;99.90
19218;DHT22;9743;52.550;13.264;2022-08-19T00:43:40;21.00;99.90
19218;DHT22;9743;52.550;13.264;2022-08-19T00:46:08;21.00;99.90
19218;DHT22;9743;52.550;13.264;2022-08-19T00:48:38;20.80;99.90
19218;DHT22;9743;52.550;13.264;2022-08-19T00:51:05;20.60;99.90
19218;DHT22;9743;52.550;13.264;2022-08-19T00:53:32;20.90;99.90
19218;DHT22;9743;52.550;13.264;2022-08-19T00:56:01;21.10;99.90
19218;DHT22;9743;52.550;13.264;2022-08-19T00:58:33;21.10;99.90
19218;DHT22;9743;52.550;13.264;2022-08-19T01:01:02;21.10;99.90
19218;DHT22;9743;52.550;13.264;2022-08-19T01:03:29;21.10;99.90
19218;DHT22;9743;52.550;13.264;2022-08-19T01:05:57;21.20;99.90
19218;DHT22;9743;52.550;13.264;2022-08-19T01:08:25;21.30;99.90
19218;DHT22;9743;52.550;13.264;2022-08-19T01:10:59;21.30;99.90
19218;DHT22;9743;52.550;13.264;2022-08-19T01:13:28;21.20;99.90
19218;DHT22;9743;52.550;13.264;2022-08-19T01:15:59;21.20;99.90
19218;DHT22;9743;52.550;13.264;2022-08-19T01:18:28;21.40;99.90
19218;DHT22;9743;52.550;13.264;2022-08-19T01:21:02;21.20;99.90
19218;DHT22;9743;52.550;13.264;2022-08-19T01:23:31;20.90;99.90
19218;DHT22;9743;52.550;13.264;2022-08-19T01:26:10;20.70;99.90
19218;DHT22;9743;52.550;13.264;2022-08-19T01:28:38;20.90;99.90
19218;DHT22;9743;52.550;13.264;2022-08-19T01:31:08;21.00;99.90
19218;DHT22;9743;52.550;13.264;2022-08-19T01:33:37;21.10;99.90
19218;DHT22;9743;52.550;13.264;2022-08-19T01:36:07;21.00;99.90
19218;DHT22;9743;52.550;13.264;2022-08-19T01:38:38;20.80;99.90
19218;DHT22;9743;52.550;13.264;2022-08-19T01:41:05;20.70;99.90
19218;DHT22;9743;52.550;13.264;2022-08-19T01:43:32;20.90;99.90
19218;DHT22;9743;52.550;13.264;2022-08-19T01:45:59;21.00;99.90
19218;DHT22;9743;52.550;13.264;2022-08-19T01:48:33;21.00;99.90
19218;DHT22;9743;52.550;13.264;2022-08-19T01:51:00;20.70;99.90
19218;DHT22;9743;52.550;13.264;2022-08-19T01:53:30;20.70;99.90
19218;DHT22;9743;52.550;13.264;2022-08-19T01:55:58;20.60;99.90
19218;DHT22;9743;52.550;13.264;2022-08-19T01:58:29;20.50;99.90
19218;DHT22;9743;52.550;13.264;2022-08-19T02:00:58;20.50;99.90
19218;DHT22;9743;52.550;13.264;2022-08-19T02:03:25;20.50;99.90
19218;DHT22;9743;52.550;13.264;2022-08-19T02:05:56;20.60;99.90
19218;DHT22;9743;52.550;13.264;2022-08-19T02:08:24;20.50;99.90
19218;DHT22;9743;52.550;13.264;2022-08-19T02:10:51;20.50;99.90
19218;DHT22;9743;52.550;13.264;2022-08-19T02:13:19;20.40;99.90
19218;DHT22;9743;52.550;13.264;2022-08-19T02:15:46;20.30;99.90
19218;DHT22;9743;52.550;13.264;2022-08-19T02:18:13;20.20;99.90
19218;DHT22;9743;52.550;13.264;2022-08-19T02:20:42;20.40;99.90
19218;DHT22;9743;52.550;13.264;2022-08-19T02:23:10;20.30;99.90
19218;DHT22;9743;52.550;13.264;2022-08-19T02:25:37;20.30;99.90
19218;DHT22;9743;52.550;13.264;2022-08-19T02:28:05;20.20;99.90
19218;DHT22;9743;52.550;13.264;2022-08-19T02:30:33;20.20;99.90
19218;DHT22;9743;52.550;13.264;2022-08-19T02:33:00;20.10;99.90
19218;DHT22;9743;52.550;13.264;2022-08-19T02:35:27;20.00;99.90
19218;DHT22;9743;52.550;13.264;2022-08-19T02:37:54;20.00;99.90
19218;DHT22;9743;52.550;13.264;2022-08-19T02:40:50;19.90;99.90
19218;DHT22;9743;52.550;13.264;2022-08-19T02:43:18;19.90;99.90
19218;DHT22;9743;52.550;13.264;2022-08-19T02:45:48;19.90;99.90
19218;DHT22;9743;52.550;13.264;2022-08-19T02:48:17;19.90;99.90
19218;DHT22;9743;52.550;13.264;2022-08-19T02:50:45;20.00;99.90
19218;DHT22;9743;52.550;13.264;2022-08-19T02:53:12;19.90;99.90
19218;DHT22;9743;52.550;13.264;2022-08-19T02:55:46;19.90;99.90
19218;DHT22;9743;52.550;13.264;2022-08-19T02:58:14;20.00;99.90
19218;DHT22;9743;52.550;13.264;2022-08-19T03:00:42;20.00;99.90
19218;DHT22;9743;52.550;13.264;2022-08-19T03:03:11;20.00;99.90
19218;DHT22;9743;52.550;13.264;2022-08-19T03:05:39;20.00;99.90
19218;DHT22;9743;52.550;13.264;2022-08-19T03:08:06;20.10;99.90
19218;DHT22;9743;52.550;13.264;2022-08-19T03:10:40;20.30;99.90
19218;DHT22;9743;52.550;13.264;2022-08-19T03:13:10;20.30;99.90
19218;DHT22;9743;52.550;13.264;2022-08-19T03:15:39;20.20;99.90
19218;DHT22;9743;52.550;13.264;2022-08-19T03:18:06;20.10;99.90
19218;DHT22;9743;52.550;13.264;2022-08-19T03:20:40;20.10;99.90
19218;DHT22;9743;52.550;13.264;2022-08-19T03:23:07;20.10;99.90
19218;DHT22;9743;52.550;13.264;2022-08-19T03:25:37;20.30;99.90
19218;DHT22;9743;52.550;13.264;2022-08-19T03:28:04;20.40;99.90
19218;DHT22;9743;52.550;13.264;2022-08-19T03:30:31;20.30;99.90
19218;DHT22;9743;52.550;13.264;2022-08-19T03:32:58;20.40;99.90
19218;DHT22;9743;52.550;13.264;2022-08-19T03:35:25;20.30;99.90
19218;DHT22;9743;52.550;13.264;2022-08-19T03:37:53;20.20;99.90
19218;DHT22;9743;52.550;13.264;2022-08-19T03:40:21;20.10;99.90
19218;DHT22;9743;52.550;13.264;2022-08-19T03:42:48;20.10;99.90
19218;DHT22;9743;52.550;13.264;2022-08-19T03:45:15;20.10;99.90
19218;DHT22;9743;52.550;13.264;2022-08-19T03:47:42;20.20;99.90
19218;DHT22;9743;52.550;13.264;2022-08-19T03:50:09;20.10;99.90
19218;DHT22;9743;52.550;13.264;2022-08-19T03:52:36;20.10;99.90
19218;DHT22;9743;52.550;13.264;2022-08-19T03:55:05;20.20;99.90
19218;DHT22;9743;52.550;13.264;2022-08-19T03:57:33;20.10;99.90
19218;DHT22;9743;52.550;13.264;2022-08-19T04:00:00;20.10;99.90
19218;DHT22;9743;52.550;13.264;2022-08-19T04:02:29;20.10;99.90
19218;DHT22;9743;52.550;13.264;2022-08-19T04:04:56;20.00;99.90
19218;DHT22;9743;52.550;13.264;2022-08-19T04:07:23;20.00;99.90
19218;DHT22;9743;52.550;13.264;2022-08-19T04:09:50;20.00;99.90
19218;DHT22;9743;52.550;13.264;2022-08-19T04:12:20;20.00;99.90
19218;DHT22;9743;52.550;13.264;2022-08-19T04:14:46;19.90;99.90
19218;DHT22;9743;52.550;13.264;2022-08-19T04:17:13;19.90;99.90
19218;DHT22;9743;52.550;13.264;2022-08-19T04:19:40;19.90;99.90
19218;DHT22;9743;52.550;13.264;2022-08-19T04:22:08;19.90;99.90
19218;DHT22;9743;52.550;13.264;2022-08-19T04:24:37;19.90;99.90
19218;DHT22;9743;52.550;13.264;2022-08-19T04:27:04;19.90;99.90
19218;DHT22;9743;52.550;13.264;2022-08-19T04:29:33;20.00;99.90
19218;DHT22;9743;52.550;13.264;2022-08-19T04:32:00;19.90;99.90
19218;DHT22;9743;52.550;13.264;2022-08-19T04:34:28;19.90;99.90
19218;DHT22;9743;52.550;13.264;2022-08-19T04:36:57;19.90;99.90
19218;DHT22;9743;52.550;13.264;2022-08-19T04:39:26;19.90;99.90
19218;DHT22;9743;52.550;13.264;2022-08-19T04:42:15;19.90;99.90
19218;DHT22;9743;52.550;13.264;2022-08-19T04:45:01;19.90;99.90
19218;DHT22;9743;52.550;13.264;2022-08-19T04:47:29;19.90;99.90
19218;DHT22;9743;52.550;13.264;2022-08-19T04:49:56;19.90;99.90
19218;DHT22;9743;52.550;13.264;2022-08-19T04:52:23;19.90;99.90
19218;DHT22;9743;52.550;13.264;2022-08-19T04:54:50;19.90;99.90
19218;DHT22;9743;52.550;13.264;2022-08-19T04:57:17;20.00;99.90
19218;DHT22;9743;52.550;13.264;2022-08-19T04:59:45;20.00;99.90
19218;DHT22;9743;52.550;13.264;2022-08-19T05:02:14;20.00;99.90
19218;DHT22;9743;52.550;13.264;2022-08-19T05:04:41;20.00;99.90
19218;DHT22;9743;52.550;13.264;2022-08-19T05:07:08;20.00;99.90
19218;DHT22;9743;52.550;13.264;2022-08-19T05:09:38;20.10;99.90
19218;DHT22;9743;52.550;13.264;2022-08-19T05:12:05;20.00;99.90
19218;DHT22;9743;52.550;13.264;2022-08-19T05:14:32;20.10;99.90
19218;DHT22;9743;52.550;13.264;2022-08-19T05:17:00;20.10;99.90
19218;DHT22;9743;52.550;13.264;2022-08-19T05:19:29;20.10;99.90
19218;DHT22;9743;52.550;13.264;2022-08-19T05:22:15;20.10;99.90
19218;DHT22;9743;52.550;13.264;2022-08-19T05:25:04;20.10;99.90
19218;DHT22;9743;52.550;13.264;2022-08-19T05:27:32;20.20;99.90
19218;DHT22;9743;52.550;13.264;2022-08-19T05:29:59;20.30;99.90
19218;DHT22;9743;52.550;13.264;2022-08-19T05:32:27;20.40;99.90
19218;DHT22;9743;52.550;13.264;2022-08-19T05:34:55;20.50;99.90
19218;DHT22;9743;52.550;13.264;2022-08-19T05:37:22;20.40;99.90
19218;DHT22;9743;52.550;13.264;2022-08-19T05:39:52;20.50;99.90
19218;DHT22;9743;52.550;13.264;2022-08-19T05:42:20;20.60;99.90
19218;DHT22;9743;52.550;13.264;2022-08-19T05:44:47;20.60;99.90
19218;DHT22;9743;52.550;13.264;2022-08-19T05:47:14;20.70;99.90
19218;DHT22;9743;52.550;13.264;2022-08-19T05:49:42;20.70;99.90
19218;DHT22;9743;52.550;13.264;2022-08-19T05:52:12;20.70;99.90
19218;DHT22;9743;52.550;13.264;2022-08-19T05:54:40;20.80;99.90
19218;DHT22;9743;52.550;13.264;2022-08-19T05:57:09;20.80;99.90
19218;DHT22;9743;52.550;13.264;2022-08-19T05:59:36;21.00;99.90
19218;DHT22;9743;52.550;13.264;2022-08-19T06:02:04;21.00;99.90
19218;DHT22;9743;52.550;13.264;2022-08-19T06:04:32;21.00;99.90
19218;DHT22;9743;52.550;13.264;2022-08-19T06:06:59;21.10;99.90
19218;DHT22;9743;52.550;13.264;2022-08-19T06:09:28;21.10;99.90
19218;DHT22;9743;52.550;13.264;2022-08-19T06:11:57;21.10;99.90
19218;DHT22;9743;52.550;13.264;2022-08-19T06:14:29;21.10;99.90
19218;DHT22;9743;52.550;13.264;2022-08-19T06:16:57;21.10;99.90
19218;DHT22;9743;52.550;13.264;2022-08-19T06:19:29;21.10;99.90
19218;DHT22;9743;52.550;13.264;2022-08-19T06:21:58;21.20;99.90
19218;DHT22;9743;52.550;13.264;2022-08-19T06:24:28;21.30;99.90
19218;DHT22;9743;52.550;13.264;2022-08-19T06:26:56;21.30;99.90
19218;DHT22;9743;52.550;13.264;2022-08-19T06:29:25;21.40;99.90
19218;DHT22;9743;52.550;13.264;2022-08-19T06:31:55;21.50;99.90
19218;DHT22;9743;52.550;13.264;2022-08-19T06:34:22;21.60;99.90
19218;DHT22;9743;52.550;13.264;2022-08-19T06:36:51;21.70;99.90
19218;DHT22;9743;52.550;13.264;2022-08-19T06:39:20;21.80;99.90
19218;DHT22;9743;52.550;13.264;2022-08-19T06:41:50;21.80;99.90
19218;DHT22;9743;52.550;13.264;2022-08-19T06:44:19;21.80;99.90
19218;DHT22;9743;52.550;13.264;2022-08-19T06:46:46;21.70;99.90
19218;DHT22;9743;52.550;13.264;2022-08-19T06:49:14;21.60;99.90
19218;DHT22;9743;52.550;13.264;2022-08-19T06:51:41;21.50;99.90
19218;DHT22;9743;52.550;13.264;2022-08-19T06:54:09;21.60;99.90
19218;DHT22;9743;52.550;13.264;2022-08-19T06:56:36;21.60;99.90
19218;DHT22;9743;52.550;13.264;2022-08-19T06:59:09;21.60;99.90
19218;DHT22;9743;52.550;13.264;2022-08-19T07:01:36;21.50;99.90
19218;DHT22;9743;52.550;13.264;2022-08-19T07:04:04;21.70;99.90
19218;DHT22;9743;52.550;13.264;2022-08-19T07:06:31;21.70;99.90
19218;DHT22;9743;52.550;13.264;2022-08-19T07:08:58;21.70;99.90
19218;DHT22;9743;52.550;13.264;2022-08-19T07:11:26;21.70;99.90
19218;DHT22;9743;52.550;13.264;2022-08-19T07:13:53;21.70;99.90
19218;DHT22;9743;52.550;13.264;2022-08-19T07:16:22;21.70;99.90
19218;DHT22;9743;52.550;13.264;2022-08-19T07:18:50;21.70;99.90
19218;DHT22;9743;52.550;13.264;2022-08-19T07:21:19;21.80;99.90
19218;DHT22;9743;52.550;13.264;2022-08-19T07:23:47;21.70;99.90
19218;DHT22;9743;52.550;13.264;2022-08-19T07:26:16;21.80;99.90
19218;DHT22;9743;52.550;13.264;2022-08-19T07:28:45;21.80;99.90
19218;DHT22;9743;52.550;13.264;2022-08-19T07:31:14;21.80;99.90
19218;DHT22;9743;52.550;13.264;2022-08-19T07:33:45;21.70;99.90
19218;DHT22;9743;52.550;13.264;2022-08-19T07:36:18;21.70;99.90
19218;DHT22;9743;52.550;13.264;2022-08-19T07:38:49;21.70;99.90
19218;DHT22;9743;52.550;13.264;2022-08-19T07:41:18;21.70;99.90
19218;DHT22;9743;52.550;13.264;2022-08-19T07:43:45;21.80;99.90
19218;DHT22;9743;52.550;13.264;2022-08-19T07:46:12;21.70;99.90
19218;DHT22;9743;52.550;13.264;2022-08-19T07:48:41;21.70;99.90
19218;DHT22;9743;52.550;13.264;2022-08-19T07:51:13;21.70;99.90
19218;DHT22;9743;52.550;13.264;2022-08-19T07:53:40;21.70;99.90
19218;DHT22;9743;52.550;13.264;2022-08-19T07:56:08;21.80;99.90
19218;DHT22;9743;52.550;13.264;2022-08-19T07:58:39;21.80;99.90
19218;DHT22;9743;52.550;13.264;2022-08-19T08:01:10;21.80;99.90
19218;DHT22;9743;52.550;13.264;2022-08-19T08:03:40;21.70;99.90
19218;DHT22;9743;52.550;13.264;2022-08-19T08:06:26;21.80;99.90
19218;DHT22;9743;52.550;13.264;2022-08-19T08:09:11;21.70;99.90
19218;DHT22;9743;52.550;13.264;2022-08-19T08:11:43;21.80;99.90
19218;DHT22;9743;52.550;13.264;2022-08-19T08:14:21;21.90;99.90
19218;DHT22;9743;52.550;13.264;2022-08-19T08:16:48;22.00;99.90
19218;DHT22;9743;52.550;13.264;2022-08-19T08:19:21;22.00;99.90
19218;DHT22;9743;52.550;13.264;2022-08-19T08:21:52;22.00;99.90
19218;DHT22;9743;52.550;13.264;2022-08-19T08:24:19;22.00;99.90
19218;DHT22;9743;52.550;13.264;2022-08-19T08:26:49;22.10;99.90
19218;DHT22;9743;52.550;13.264;2022-08-19T08:29:28;22.20;99.90
19218;DHT22;9743;52.550;13.264;2022-08-19T08:32:00;22.20;99.90
19218;DHT22;9743;52.550;13.264;2022-08-19T08:34:27;22.30;99.90
19218;DHT22;9743;52.550;13.264;2022-08-19T08:36:55;22.20;99.90
19218;DHT22;9743;52.550;13.264;2022-08-19T08:39:25;22.20;99.90
19218;DHT22;9743;52.550;13.264;2022-08-19T08:41:57;22.20;99.90
19218;DHT22;9743;52.550;13.264;2022-08-19T08:44:40;22.20;99.90
19218;DHT22;9743;52.550;13.264;2022-08-19T08:47:14;22.10;99.90
19218;DHT22;9743;52.550;13.264;2022-08-19T08:49:46;22.10;99.90
19218;DHT22;9743;52.550;13.264;2022-08-19T08:52:20;22.00;99.90
19218;DHT22;9743;52.550;13.264;2022-08-19T08:58:00;22.00;99.90
19218;DHT22;9743;52.550;13.264;2022-08-19T09:00:35;22.00;99.90
19218;DHT22;9743;52.550;13.264;2022-08-19T09:03:19;22.00;99.90
19218;DHT22;9743;52.550;13.264;2022-08-19T09:05:56;22.10;99.90
19218;DHT22;9743;52.550;13.264;2022-08-19T09:09:04;22.00;99.90
19218;DHT22;9743;52.550;13.264;2022-08-19T09:12:05;22.00;99.90
19218;DHT22;9743;52.550;13.264;2022-08-19T09:14:46;21.90;99.90
19218;DHT22;9743;52.550;13.264;2022-08-19T09:17:15;21.90;99.90
19218;DHT22;9743;52.550;13.264;2022-08-19T09:19:53;21.90;99.90
19218;DHT22;9743;52.550;13.264;2022-08-19T09:22:21;22.00;99.90
19218;DHT22;9743;52.550;13.264;2022-08-19T09:24:50;22.10;99.90
19218;DHT22;9743;52.550;13.264;2022-08-19T09:27:18;22.20;99.90
19218;DHT22;9743;52.550;13.264;2022-08-19T09:29:46;22.20;99.90
19218;DHT22;9743;52.550;13.264;2022-08-19T09:32:13;22.30;99.90
19218;DHT22;9743;52.550;13.264;2022-08-19T09:34:43;22.40;99.90
19218;DHT22;9743;52.550;13.264;2022-08-19T09:37:13;22.70;99.90
19218;DHT22;9743;52.550;13.264;2022-08-19T09:39:44;22.90;99.90
19218;DHT22;9743;52.550;13.264;2022-08-19T09:42:14;22.90;99.90
19218;DHT22;9743;52.550;13.264;2022-08-19T09:44:42;22.90;99.90
19218;DHT22;9743;52.550;13.264;2022-08-19T09:47:10;23.00;99.90
19218;DHT22;9743;52.550;13.264;2022-08-19T09:49:37;22.90;99.90
19218;DHT22;9743;52.550;13.264;2022-08-19T09:52:05;23.00;99.90
19218;DHT22;9743;52.550;13.264;2022-08-19T09:54:33;22.70;99.90
19218;DHT22;9743;52.550;13.264;2022-08-19T09:57:01;22.90;99.90
19218;DHT22;9743;52.550;13.264;2022-08-19T09:59:29;23.00;99.90
19218;DHT22;9743;52.550;13.264;2022-08-19T10:01:57;22.70;99.90
19218;DHT22;9743;52.550;13.264;2022-08-19T10:04:24;22.80;99.90
19218;DHT22;9743;52.550;13.264;2022-08-19T10:07:12;22.90;99.90
19218;DHT22;9743;52.550;13.264;2022-08-19T10:09:39;22.80;99.90
19218;DHT22;9743;52.550;13.264;2022-08-19T10:12:07;22.70;99.90
19218;DHT22;9743;52.550;13.264;2022-08-19T10:14:36;22.60;99.90
19218;DHT22;9743;52.550;13.264;2022-08-19T10:17:03;22.80;99.90
19218;DHT22;9743;52.550;13.264;2022-08-19T10:19:30;22.70;99.90
19218;DHT22;9743;52.550;13.264;2022-08-19T10:22:03;22.90;99.90
19218;DHT22;9743;52.550;13.264;2022-08-19T10:24:31;23.10;99.90
19218;DHT22;9743;52.550;13.264;2022-08-19T10:26:59;23.20;99.90
19218;DHT22;9743;52.550;13.264;2022-08-19T10:29:29;23.40;99.90
19218;DHT22;9743;52.550;13.264;2022-08-19T10:32:01;23.30;99.90
19218;DHT22;9743;52.550;13.264;2022-08-19T10:34:29;23.50;99.90
19218;DHT22;9743;52.550;13.264;2022-08-19T10:36:57;23.50;99.90
19218;DHT22;9743;52.550;13.264;2022-08-19T10:39:25;23.50;99.90
19218;DHT22;9743;52.550;13.264;2022-08-19T10:41:53;23.30;99.90
19218;DHT22;9743;52.550;13.264;2022-08-19T10:44:21;23.30;99.90
19218;DHT22;9743;52.550;13.264;2022-08-19T10:46:49;23.40;99.90
19218;DHT22;9743;52.550;13.264;2022-08-19T10:49:18;23.40;99.90
19218;DHT22;9743;52.550;13.264;2022-08-19T10:51:46;23.40;99.90
19218;DHT22;9743;52.550;13.264;2022-08-19T10:54:33;23.50;99.90
19218;DHT22;9743;52.550;13.264;2022-08-19T10:57:17;23.40;99.90
19218;DHT22;9743;52.550;13.264;2022-08-19T10:59:44;23.10;99.90
19218;DHT22;9743;52.550;13.264;2022-08-19T11:02:12;23.20;99.90
19218;DHT22;9743;52.550;13.264;2022-08-19T11:04:41;23.20;99.90
19218;DHT22;9743;52.550;13.264;2022-08-19T11:07:08;23.30;99.90
19218;DHT22;9743;52.550;13.264;2022-08-19T11:09:38;23.30;99.90
19218;DHT22;9743;52.550;13.264;2022-08-19T11:12:06;23.30;99.90
19218;DHT22;9743;52.550;13.264;2022-08-19T11:14:36;23.20;99.90
19218;DHT22;9743;52.550;13.264;2022-08-19T11:17:04;23.10;99.90
19218;DHT22;9743;52.550;13.264;2022-08-19T11:19:32;23.30;99.90
19218;DHT22;9743;52.550;13.264;2022-08-19T11:22:00;23.20;99.90
19218;DHT22;9743;52.550;13.264;2022-08-19T11:24:28;23.00;99.90
19218;DHT22;9743;52.550;13.264;2022-08-19T11:27:01;23.20;99.90
19218;DHT22;9743;52.550;13.264;2022-08-19T11:29:32;23.30;99.90
19218;DHT22;9743;52.550;13.264;2022-08-19T11:32:02;23.00;99.90
19218;DHT22;9743;52.550;13.264;2022-08-19T11:34:30;23.10;99.90
19218;DHT22;9743;52.550;13.264;2022-08-19T11:36:57;23.00;99.90
19218;DHT22;9743;52.550;13.264;2022-08-19T11:39:28;23.10;99.90
19218;DHT22;9743;52.550;13.264;2022-08-19T11:41:57;23.00;99.90
19218;DHT22;9743;52.550;13.264;2022-08-19T11:44:25;22.90;99.90
19218;DHT22;9743;52.550;13.264;2022-08-19T11:46:53;23.00;99.90
19218;DHT22;9743;52.550;13.264;2022-08-19T11:49:20;23.00;99.90
19218;DHT22;9743;52.550;13.264;2022-08-19T11:51:48;23.10;99.90
19218;DHT22;9743;52.550;13.264;2022-08-19T11:54:16;23.00;99.90
19218;DHT22;9743;52.550;13.264;2022-08-19T11:56:45;23.10;99.90
19218;DHT22;9743;52.550;13.264;2022-08-19T11:59:14;23.10;99.90
19218;DHT22;9743;52.550;13.264;2022-08-19T12:01:41;23.40;99.90
19218;DHT22;9743;52.550;13.264;2022-08-19T12:04:09;23.40;99.90
19218;DHT22;9743;52.550;13.264;2022-08-19T12:06:38;23.50;99.90
19218;DHT22;9743;52.550;13.264;2022-08-19T12:09:06;23.40;99.90
19218;DHT22;9743;52.550;13.264;2022-08-19T12:11:34;23.60;99.90
19218;DHT22;9743;52.550;13.264;2022-08-19T12:14:03;23.50;99.90
19218;DHT22;9743;52.550;13.264;2022-08-19T12:16:31;23.60;99.90
19218;DHT22;9743;52.550;13.264;2022-08-19T12:18:58;23.60;99.90
19218;DHT22;9743;52.550;13.264;2022-08-19T12:21:30;23.60;99.90
19218;DHT22;9743;52.550;13.264;2022-08-19T12:23:58;23.70;99.90
19218;DHT22;9743;52.550;13.264;2022-08-19T12:26:27;23.70;99.90
19218;DHT22;9743;52.550;13.264;2022-08-19T12:28:54;23.50;99.90
19218;DHT22;9743;52.550;13.264;2022-08-19T12:31:23;23.50;99.90
19218;DHT22;9743;52.550;13.264;2022-08-19T12:33:49;23.60;99.90
19218;DHT22;9743;52.550;13.264;2022-08-19T12:36:18;23.40;99.90
19218;DHT22;9743;52.550;13.264;2022-08-19T12:38:45;23.40;99.90
19218;DHT22;9743;52.550;13.264;2022-08-19T12:41:16;23.40;99.90
19218;DHT22;9743;52.550;13.264;2022-08-19T12:43:44;23.40;99.90
19218;DHT22;9743;52.550;13.264;2022-08-19T12:46:11;23.30;99.90
19218;DHT22;9743;52.550;13.264;2022-08-19T12:48:41;23.20;99.90
19218;DHT22;9743;52.550;13.264;2022-08-19T12:51:12;23.20;99.90
19218;DHT22;9743;52.550;13.264;2022-08-19T12:53:39;23.10;99.90
19218;DHT22;9743;52.550;13.264;2022-08-19T12:56:07;23.00;99.90
19218;DHT22;9743;52.550;13.264;2022-08-19T12:58:34;23.10;99.90
19218;DHT22;9743;52.550;13.264;2022-08-19T13:01:06;23.20;99.90
19218;DHT22;9743;52.550;13.264;2022-08-19T13:03:33;23.40;99.90
19218;DHT22;9743;52.550;13.264;2022-08-19T13:06:03;23.60;99.90
19218;DHT22;9743;52.550;13.264;2022-08-19T13:08:30;23.60;99.90
19218;DHT22;9743;52.550;13.264;2022-08-19T13:10:59;23.90;99.90
19218;DHT22;9743;52.550;13.264;2022-08-19T13:13:32;24.40;99.90
19218;DHT22;9743;52.550;13.264;2022-08-19T13:16:00;24.90;99.90
19218;DHT22;9743;52.550;13.264;2022-08-19T13:18:28;24.80;99.90
19218;DHT22;9743;52.550;13.264;2022-08-19T13:20:55;24.60;99.90
19218;DHT22;9743;52.550;13.264;2022-08-19T13:23:24;24.50;99.90
19218;DHT22;9743;52.550;13.264;2022-08-19T13:25:57;24.40;99.90
19218;DHT22;9743;52.550;13.264;2022-08-19T13:28:24;24.40;99.90
19218;DHT22;9743;52.550;13.264;2022-08-19T13:30:51;24.40;99.90
19218;DHT22;9743;52.550;13.264;2022-08-19T13:33:40;24.40;99.90
19218;DHT22;9743;52.550;13.264;2022-08-19T13:36:07;24.60;99.90
19218;DHT22;9743;52.550;13.264;2022-08-19T13:38:35;24.60;99.90
19218;DHT22;9743;52.550;13.264;2022-08-19T13:41:04;24.80;99.90
19218;DHT22;9743;52.550;13.264;2022-08-19T13:43:31;24.80;99.90
19218;DHT22;9743;52.550;13.264;2022-08-19T13:45:58;24.80;99.90
19218;DHT22;9743;52.550;13.264;2022-08-19T13:48:26;24.90;99.90
19218;DHT22;9743;52.550;13.264;2022-08-19T13:50:52;25.20;99.90
19218;DHT22;9743;52.550;13.264;2022-08-19T13:53:19;25.10;99.90
19218;DHT22;9743;52.550;13.264;2022-08-19T13:55:47;24.90;99.90
19218;DHT22;9743;52.550;13.264;2022-08-19T13:58:15;24.80;99.90
19218;DHT22;9743;52.550;13.264;2022-08-19T14:00:45;24.80;99.90
19218;DHT22;9743;52.550;13.264;2022-08-19T14:03:12;25.00;99.90
19218;DHT22;9743;52.550;13.264;2022-08-19T14:05:39;24.70;99.90
19218;DHT22;9743;52.550;13.264;2022-08-19T14:08:06;24.70;99.90
19218;DHT22;9743;52.550;13.264;2022-08-19T14:10:34;24.50;99.90
19218;DHT22;9743;52.550;13.264;2022-08-19T14:13:03;24.50;99.90
19218;DHT22;9743;52.550;13.264;2022-08-19T14:15:30;24.50;99.90
19218;DHT22;9743;52.550;13.264;2022-08-19T14:17:58;24.50;99.90
19218;DHT22;9743;52.550;13.264;2022-08-19T14:20:25;24.50;99.90
19218;DHT22;9743;52.550;13.264;2022-08-19T14:22:52;24.50;99.90
19218;DHT22;9743;52.550;13.264;2022-08-19T14:25:23;24.50;99.90
19218;DHT22;9743;52.550;13.264;2022-08-19T14:27:51;24.30;99.90
19218;DHT22;9743;52.550;13.264;2022-08-19T14:30:21;24.30;99.90
19218;DHT22;9743;52.550;13.264;2022-08-19T14:32:50;24.30;99.90
19218;DHT22;9743;52.550;13.264;2022-08-19T14:35:17;24.00;99.90
19218;DHT22;9743;52.550;13.264;2022-08-19T14:37:45;24.20;99.90
19218;DHT22;9743;52.550;13.264;2022-08-19T14:40:14;24.10;99.90
19218;DHT22;9743;52.550;13.264;2022-08-19T14:42:41;23.90;99.90
19218;DHT22;9743;52.550;13.264;2022-08-19T14:45:09;24.20;99.90
19218;DHT22;9743;52.550;13.264;2022-08-19T14:47:38;24.20;99.90
19218;DHT22;9743;52.550;13.264;2022-08-19T14:50:06;24.30;99.90
19218;DHT22;9743;52.550;13.264;2022-08-19T14:52:33;24.30;99.90
19218;DHT22;9743;52.550;13.264;2022-08-19T14:55:00;24.40;99.90
19218;DHT22;9743;52.550;13.264;2022-08-19T14:57:27;24.40;99.90
19218;DHT22;9743;52.550;13.264;2022-08-19T14:59:54;24.40;99.90
19218;DHT22;9743;52.550;13.264;2022-08-19T15:02:22;24.30;99.90
19218;DHT22;9743;52.550;13.264;2022-08-19T15:04:50;24.30;99.90
19218;DHT22;9743;52.550;13.264;2022-08-19T15:07:17;24.30;99.90
19218;DHT22;9743;52.550;13.264;2022-08-19T15:09:44;23.80;99.90
19218;DHT22;9743;52.550;13.264;2022-08-19T15:12:11;23.70;99.90
19218;DHT22;9743;52.550;13.264;2022-08-19T15:14:37;23.60;99.90
19218;DHT22;9743;52.550;13.264;2022-08-19T15:17:07;23.40;99.90
19218;DHT22;9743;52.550;13.264;2022-08-19T15:19:34;23.40;99.90
19218;DHT22;9743;52.550;13.264;2022-08-19T15:22:03;23.40;99.90
19218;DHT22;9743;52.550;13.264;2022-08-19T15:24:29;23.50;99.90
19218;DHT22;9743;52.550;13.264;2022-08-19T15:27:02;23.50;99.90
19218;DHT22;9743;52.550;13.264;2022-08-19T15:29:52;23.40;99.90
19218;DHT22;9743;52.550;13.264;2022-08-19T15:32:25;23.30;99.90
19218;DHT22;9743;52.550;13.264;2022-08-19T15:35:11;23.20;99.90
19218;DHT22;9743;52.550;13.264;2022-08-19T15:37:47;23.00;99.90
19218;DHT22;9743;52.550;13.264;2022-08-19T15:40:14;22.60;99.90
19218;DHT22;9743;52.550;13.264;2022-08-19T15:42:41;22.60;99.90
19218;DHT22;9743;52.550;13.264;2022-08-19T15:45:08;22.60;99.90
19218;DHT22;9743;52.550;13.264;2022-08-19T15:47:36;22.60;99.90